Time;durP1;ratioP1;P1;durP2;ratioP2;P2;SDS_P1;SDS_P2;PMS_P1;PMS_P2;Temp;Humidity;BMP_temperature;BMP_pressure;BME280_temperature;BME280_humidity;BME280_pressure;Samples;Min_cycle;Max_cycle;Signal;HPM_P1;HPM_P2
2022/04/28 00:00:32;;;;;;;;;21.00;19.25;;;;;15.17;35.99;101898.22;4981895;28;45320;-58
2022/04/28 00:02:57;;;;;;;;;23.25;22.00;;;;;15.15;36.11;101894.72;4983202;28;46091;-58
2022/04/28 00:05:24;;;;;;;;;26.25;22.75;;;;;15.13;35.97;101891.19;4982932;28;45433;-58
2022/04/28 00:07:50;;;;;;;;;22.00;19.75;;;;;15.09;35.99;101890.41;4972879;28;45326;-58
2022/04/28 00:10:16;;;;;;;;;26.25;25.00;;;;;15.07;36.22;101888.66;4981024;28;45545;-58
2022/04/28 00:12:41;;;;;;;;;29.50;26.75;;;;;15.03;36.38;101889.59;4982713;28;46039;-58
2022/04/28 00:15:08;;;;;;;;;20.75;20.75;;;;;14.98;36.15;101886.13;4982985;28;45294;-58
2022/04/28 00:17:34;;;;;;;;;25.50;22.00;;;;;14.97;36.70;101889.69;4983256;28;45500;-58
2022/04/28 00:19:59;;;;;;;;;26.75;23.75;;;;;14.92;36.68;101893.28;4983029;28;45228;-58
2022/04/28 00:22:25;;;;;;;;;26.50;24.25;;;;;14.90;36.43;101895.06;4983095;28;45241;-58
2022/04/28 00:24:51;;;;;;;;;21.75;21.75;;;;;14.87;36.37;101891.59;4982730;28;45238;-58
2022/04/28 00:27:17;;;;;;;;;22.25;21.50;;;;;14.84;36.30;101895.16;4983112;28;45352;-57
2022/04/28 00:29:42;;;;;;;;;24.00;24.00;;;;;14.80;36.70;101888.16;4982727;28;45532;-58
2022/04/28 00:32:08;;;;;;;;;26.00;24.50;;;;;14.76;36.70;101883.78;4982218;28;56476;-58
2022/04/28 00:34:33;;;;;;;;;28.00;26.50;;;;;14.74;36.74;101885.56;4982739;28;45361;-58
2022/04/28 00:36:59;;;;;;;;;29.00;24.25;;;;;14.73;36.58;101886.47;4983004;28;45297;-57
2022/04/28 00:39:24;;;;;;;;;23.75;23.00;;;;;14.68;36.90;101886.56;4982524;28;45444;-57
2022/04/28 00:41:49;;;;;;;;;22.00;21.50;;;;;14.65;36.71;101876.00;4982730;28;46251;-58
2022/04/28 00:44:16;;;;;;;;;24.50;23.25;;;;;14.62;36.84;101878.66;4982433;28;45493;-57
2022/04/28 00:46:44;;;;;;;;;23.25;22.75;;;;;14.59;36.71;101889.25;4982880;28;45311;-58
2022/04/28 00:51:54;;;;;;;;;22.00;22.00;;;;;14.52;37.10;101882.31;4981337;28;45215;-58
2022/04/28 00:54:21;;;;;;;;;29.00;24.00;;;;;14.49;37.25;101882.34;4980998;28;45231;-58
2022/04/28 00:56:46;;;;;;;;;27.25;26.25;;;;;14.45;36.58;101876.22;4982604;28;45306;-57
2022/04/28 00:59:12;;;;;;;;;23.50;22.25;;;;;14.42;36.67;101878.91;4982150;28;45448;-57
2022/04/28 01:01:38;;;;;;;;;27.25;23.50;;;;;14.39;37.00;101876.28;4982328;28;46387;-58
2022/04/28 01:04:03;;;;;;;;;23.50;20.75;;;;;14.35;37.20;101871.94;4982214;28;45267;-58
2022/04/28 01:06:29;;;;;;;;;20.25;20.25;;;;;14.31;36.92;101873.75;4981117;28;45327;-58
2022/04/28 01:08:58;;;;;;;;;27.75;24.25;;;;;14.29;36.98;101878.19;4970093;28;45327;-58
2022/04/28 01:11:25;;;;;;;;;23.75;21.75;;;;;14.25;37.52;101881.75;4982157;28;46082;-58
2022/04/28 01:13:50;;;;;;;;;24.50;23.00;;;;;14.22;37.06;101885.28;4982151;28;45289;-58
2022/04/28 01:16:16;;;;;;;;;29.75;26.00;;;;;14.16;37.06;101879.22;4982239;28;45396;-58
2022/04/28 01:18:41;;;;;;;;;26.75;22.75;;;;;14.15;37.26;101883.63;4982296;28;45223;-70
2022/04/28 01:21:08;;;;;;;;;26.75;25.50;;;;;14.12;37.07;101883.66;4981983;28;46495;-68
2022/04/28 01:23:35;;;;;;;;;22.25;19.50;;;;;14.09;37.41;101881.91;4982140;28;45515;-64
2022/04/28 01:26:00;;;;;;;;;24.50;23.25;;;;;14.08;37.49;101884.59;4981924;28;45320;-69
2022/04/28 01:28:31;;;;;;;;;25.50;21.50;;;;;14.04;37.66;101880.22;4980525;28;45347;-71
2022/04/28 01:30:59;;;;;;;;;25.50;22.50;;;;;14.01;37.64;101877.59;4981772;28;46388;-59
2022/04/28 01:33:24;;;;;;;;;26.00;24.50;;;;;13.99;37.64;101877.63;4981658;28;45314;-58
2022/04/28 01:35:49;;;;;;;;;28.50;24.75;;;;;13.96;37.48;101875.88;4980691;28;45293;-58
2022/04/28 01:38:15;;;;;;;;;30.50;25.00;;;;;13.93;37.38;101873.25;4982001;28;45407;-58
2022/04/28 01:40:40;;;;;;;;;23.00;21.00;;;;;13.90;37.84;101881.25;4980354;28;48180;-58
2022/04/28 01:43:05;;;;;;;;;31.25;27.50;;;;;13.86;37.43;101873.34;4981463;28;45428;-58
2022/04/28 01:45:31;;;;;;;;;27.50;27.25;;;;;13.81;37.76;101868.09;4981979;28;45318;-57
2022/04/28 01:47:56;;;;;;;;;23.00;20.25;;;;;13.79;37.69;101880.47;4980610;28;45252;-58
2022/04/28 01:50:21;;;;;;;;;20.75;19.00;;;;;13.77;37.89;101871.66;4981614;28;46348;-58
2022/04/28 01:55:33;;;;;;;;;24.25;24.25;;;;;13.71;37.91;101874.38;4981773;28;45346;-57
2022/04/28 01:57:59;;;;;;;;;28.25;26.50;;;;;13.68;37.77;101882.31;4980076;28;45529;-57
2022/04/28 02:00:25;;;;;;;;;21.00;21.00;;;;;13.65;37.88;101883.25;4981312;28;46249;-57
2022/04/28 02:02:50;;;;;;;;;23.75;21.50;;;;;13.63;37.60;101888.53;4981434;28;45407;-57
2022/04/28 02:05:16;;;;;;;;;29.00;28.75;;;;;13.62;37.80;101891.16;4981148;28;45250;-58
2022/04/28 02:07:42;;;;;;;;;25.50;22.75;;;;;13.59;37.86;101889.44;4972035;28;45467;-58
2022/04/28 02:10:08;;;;;;;;;27.50;23.00;;;;;13.55;38.01;101885.06;4978461;28;45223;-57
2022/04/28 02:12:33;;;;;;;;;24.25;24.25;;;;;13.55;38.24;101894.78;4979775;28;46078;-57
2022/04/28 02:14:59;;;;;;;;;26.50;25.25;;;;;13.52;37.76;101889.50;4980028;28;45331;-57
2022/04/28 02:17:26;;;;;;;;;26.25;24.25;;;;;13.48;38.08;101888.66;4981375;28;45345;-57
2022/04/28 02:19:53;;;;;;;;;25.00;22.50;;;;;13.44;38.04;101895.72;4981291;28;45373;-57
2022/04/28 02:22:19;;;;;;;;;26.25;24.75;;;;;13.42;37.99;101889.59;4981009;28;45221;-57
2022/04/28 02:24:45;;;;;;;;;22.50;20.25;;;;;13.38;38.06;101884.31;4981083;28;45290;-57
2022/04/28 02:27:11;;;;;;;;;22.50;20.75;;;;;13.33;37.97;101882.56;4981121;28;45497;-57
2022/04/28 02:29:36;;;;;;;;;25.50;23.00;;;;;13.33;38.42;101887.84;4981180;28;45239;-58
2022/04/28 02:32:03;;;;;;;;;24.50;22.50;;;;;13.32;37.96;101895.78;4979558;28;45919;-57
2022/04/28 02:34:28;;;;;;;;;22.75;21.25;;;;;13.28;38.00;101888.75;4981317;28;45473;-57
2022/04/28 02:36:53;;;;;;;;;28.75;23.25;;;;;13.27;38.26;101898.47;4980934;28;45325;-57
2022/04/28 02:39:19;;;;;;;;;27.50;26.50;;;;;13.24;38.17;101887.91;4980910;28;46415;-58
2022/04/28 02:41:47;;;;;;;;;23.75;22.25;;;;;13.23;38.13;101898.47;4980939;28;45342;-57
2022/04/28 02:44:13;;;;;;;;;28.00;22.25;;;;;13.20;38.34;101896.75;4980865;28;45315;-57
2022/04/28 02:46:40;;;;;;;;;23.00;22.50;;;;;13.17;38.48;101899.41;4980899;28;45271;-58
2022/04/28 02:49:06;;;;;;;;;21.25;20.00;;;;;13.15;38.47;101903.81;4980706;28;47044;-57
2022/04/28 02:51:31;;;;;;;;;25.25;22.75;;;;;13.11;38.35;101899.44;4980621;28;45202;-58
2022/04/28 02:53:56;;;;;;;;;21.25;18.25;;;;;13.09;38.57;101896.78;4980777;28;45947;-58
2022/04/28 02:56:22;;;;;;;;;21.25;21.25;;;;;13.06;38.47;101896.84;4980881;28;45440;-58
2022/04/28 02:58:50;;;;;;;;;21.00;21.00;;;;;13.01;38.67;101894.22;4980286;28;45475;-58
2022/04/28 03:01:16;;;;;;;;;26.75;24.50;;;;;13.00;38.86;101892.47;4980681;28;45337;-57
2022/04/28 03:03:41;;;;;;;;;22.75;21.25;;;;;12.98;38.55;101907.44;4979201;28;45304;-57
2022/04/28 03:11:34;;;;;;;;;24.50;24.25;;;;;12.90;38.64;101903.09;4980562;28;45314;-58
2022/04/28 03:14:00;;;;;;;;;25.50;22.50;;;;;12.84;38.81;101896.97;4980423;28;45306;-57
2022/04/28 03:16:26;;;;;;;;;29.75;28.25;;;;;12.82;38.82;101903.13;4979487;28;45211;-57
2022/04/28 03:18:52;;;;;;;;;24.75;22.25;;;;;12.80;38.84;101907.53;4979199;28;45979;-59
2022/04/28 03:21:17;;;;;;;;;24.75;23.25;;;;;12.77;38.80;101907.56;4980266;28;45339;-58
2022/04/28 03:23:43;;;;;;;;;29.00;26.75;;;;;12.75;38.95;101904.03;4980487;28;45301;-58
2022/04/28 03:26:08;;;;;;;;;25.75;22.25;;;;;12.72;38.94;101911.97;4980260;28;45205;-58
2022/04/28 03:28:34;;;;;;;;;27.50;25.75;;;;;12.67;39.09;101904.06;4980085;28;46186;-58
2022/04/28 03:31:01;;;;;;;;;23.25;22.75;;;;;12.66;38.98;101903.19;4978892;28;45284;-58
2022/04/28 03:33:27;;;;;;;;;25.75;22.50;;;;;12.63;38.94;101902.34;4980076;28;45335;-58
2022/04/28 03:35:52;;;;;;;;;25.25;16.25;;;;;12.60;39.10;101902.34;4980340;28;45154;-58
2022/04/28 03:38:17;;;;;;;;;25.50;25.00;;;;;12.60;38.97;101910.25;4980546;28;45666;-58
2022/04/28 03:40:43;;;;;;;;;26.75;22.75;;;;;12.56;39.18;101904.09;4980013;28;45397;-58
2022/04/28 03:43:12;;;;;;;;;27.75;24.50;;;;;12.54;39.19;101907.63;4979958;28;45525;-58
2022/04/28 03:45:38;;;;;;;;;29.00;27.00;;;;;12.51;39.13;101912.06;4980218;28;45375;-58
2022/04/28 03:48:04;;;;;;;;;26.75;25.75;;;;;12.49;39.27;101912.91;4980203;28;45331;-58
2022/04/28 03:50:30;;;;;;;;;25.00;23.25;;;;;12.42;39.24;101906.78;4980040;28;45409;-58
2022/04/28 03:52:59;;;;;;;;;26.25;23.25;;;;;12.44;39.31;101912.06;4980055;28;45342;-58
2022/04/28 03:55:25;;;;;;;;;23.00;22.25;;;;;12.41;39.46;101923.50;4979814;28;45323;-58
2022/04/28 03:57:51;;;;;;;;;26.50;26.50;;;;;12.39;39.37;101917.38;4978376;28;47161;-58
2022/04/28 04:00:17;;;;;;;;;26.50;24.25;;;;;12.36;39.32;101917.34;4979824;28;45620;-58
2022/04/28 04:02:42;;;;;;;;;27.75;24.75;;;;;12.33;39.47;101918.25;4980055;28;45476;-58
2022/04/28 04:05:09;;;;;;;;;25.50;22.50;;;;;12.32;39.53;101924.38;4980000;28;45462;-58
2022/04/28 04:07:38;;;;;;;;;26.50;25.75;;;;;12.30;39.62;101927.91;4971424;28;46376;-58
2022/04/28 04:10:04;;;;;;;;;27.50;24.50;;;;;12.27;39.48;101917.41;4976381;28;45385;-58
2022/04/28 04:12:29;;;;;;;;;14.00;13.25;;;;;12.25;39.45;101920.03;4979659;28;45309;-58
2022/04/28 04:14:55;;;;;;;;;24.75;22.75;;;;;12.24;39.66;101928.81;4979724;28;45234;-58
2022/04/28 04:17:21;;;;;;;;;34.50;31.25;;;;;12.22;39.53;101927.06;4978540;28;45950;-58
2022/04/28 04:19:47;;;;;;;;;32.25;29.00;;;;;12.18;39.66;101929.69;4979690;28;45334;-58
2022/04/28 04:22:12;;;;;;;;;27.50;24.75;;;;;12.17;39.64;101932.34;4979713;28;45672;-58
2022/04/28 04:24:38;;;;;;;;;26.50;22.50;;;;;12.16;39.64;101935.84;4979499;28;45239;-60
2022/04/28 04:27:03;;;;;;;;;23.50;21.50;;;;;12.14;39.69;101940.25;4979597;28;45564;-58
2022/04/28 04:29:29;;;;;;;;;24.00;21.50;;;;;12.12;39.83;101942.00;4982429;28;45339;-58
2022/04/28 04:34:38;;;;;;;;;26.75;24.00;;;;;12.10;39.91;101943.75;4982931;28;45307;-58
2022/04/28 04:37:04;;;;;;;;;23.75;22.00;;;;;12.03;39.87;101942.91;4982852;28;46083;-58
2022/04/28 04:39:29;;;;;;;;;28.25;26.50;;;;;12.06;40.09;101947.28;4981399;28;45336;-58
2022/04/28 04:41:55;;;;;;;;;34.00;26.75;;;;;12.05;40.01;101958.69;4983034;28;45294;-58
2022/04/28 04:44:20;;;;;;;;;24.50;24.25;;;;;11.99;39.93;101949.06;4982468;28;45265;-58
2022/04/28 04:46:46;;;;;;;;;28.00;27.50;;;;;12.02;40.03;101955.22;4982678;28;45274;-58
2022/04/28 04:49:11;;;;;;;;;26.00;21.75;;;;;12.02;40.04;101956.94;4982655;28;45192;-58
2022/04/28 04:51:36;;;;;;;;;29.50;27.50;;;;;11.99;40.41;101955.19;4982731;28;45223;-58
2022/04/28 04:54:02;;;;;;;;;31.00;25.50;;;;;11.98;40.29;101963.97;4982502;28;45171;-58
2022/04/28 04:56:27;;;;;;;;;30.25;25.75;;;;;11.95;40.19;101957.78;4982480;28;45389;-58
2022/04/28 04:58:52;;;;;;;;;29.25;25.75;;;;;11.97;40.30;101967.47;4982280;28;45165;-58
2022/04/28 05:01:18;;;;;;;;;32.50;30.75;;;;;11.95;40.33;101965.69;4982635;28;45370;-58
2022/04/28 05:03:43;;;;;;;;;38.00;30.00;;;;;11.95;40.35;101965.69;4982416;28;45441;-58
2022/04/28 05:06:09;;;;;;;;;25.25;25.00;;;;;11.94;40.40;101970.09;4982585;28;45472;-58
2022/04/28 05:08:34;;;;;;;;;25.25;23.75;;;;;11.94;40.54;101978.00;4969999;28;45436;-58
2022/04/28 05:11:00;;;;;;;;;29.75;27.75;;;;;11.94;40.42;101975.38;4982383;28;45313;-58
2022/04/28 05:13:25;;;;;;;;;29.00;26.75;;;;;11.94;40.41;101978.00;4982021;28;45588;-58
2022/04/28 05:15:51;;;;;;;;;25.00;23.50;;;;;11.93;40.39;101972.75;4981119;28;46324;-59
2022/04/28 05:18:16;;;;;;;;;25.75;24.50;;;;;11.93;40.46;101983.28;4980880;28;45356;-58
2022/04/28 05:20:41;;;;;;;;;30.00;27.75;;;;;11.92;40.47;101974.47;4982524;28;45435;-58
2022/04/28 05:23:07;;;;;;;;;33.50;30.00;;;;;11.92;40.66;101979.75;4982032;28;45259;-58
2022/04/28 05:25:33;;;;;;;;;29.25;28.25;;;;;11.92;40.48;101992.06;4982013;28;46467;-58
2022/04/28 05:27:58;;;;;;;;;28.25;26.75;;;;;11.93;40.56;101991.19;4980614;28;45351;-58
2022/04/28 05:30:24;;;;;;;;;27.00;26.25;;;;;11.91;40.70;101990.28;4982141;28;45219;-58
2022/04/28 05:32:49;;;;;;;;;25.25;22.75;;;;;11.91;40.55;101992.91;4981805;28;45393;-58
2022/04/28 05:35:15;;;;;;;;;33.25;29.25;;;;;11.93;40.71;102004.34;4981940;28;46187;-58
2022/04/28 05:37:40;;;;;;;;;38.00;32.00;;;;;11.91;40.66;101998.19;4981928;28;45238;-58
2022/04/28 05:40:07;;;;;;;;;25.50;23.25;;;;;11.91;40.68;102014.91;4981205;28;45506;-59
2022/04/28 05:48:02;;;;;;;;;33.25;30.50;;;;;11.94;40.96;102016.66;4981995;28;45159;-58
2022/04/28 05:50:28;;;;;;;;;36.00;31.25;;;;;11.97;40.95;102020.16;4981757;28;45237;-58
2022/04/28 05:52:54;;;;;;;;;27.75;26.75;;;;;11.98;40.85;102016.66;4980514;28;45460;-58
2022/04/28 05:55:19;;;;;;;;;28.50;26.50;;;;;11.99;41.10;102026.31;4980212;28;46231;-58
2022/04/28 05:57:44;;;;;;;;;33.00;29.50;;;;;12.02;41.03;102023.72;4981450;28;45311;-58
2022/04/28 06:00:10;;;;;;;;;29.25;28.50;;;;;12.05;40.93;102021.94;4981702;28;45372;-58
2022/04/28 06:02:37;;;;;;;;;34.00;31.75;;;;;12.05;40.81;102024.56;4981513;28;45359;-58
2022/04/28 06:05:03;;;;;;;;;32.50;29.75;;;;;12.08;41.08;102028.09;4981244;28;46105;-58
2022/04/28 06:07:28;;;;;;;;;32.00;30.75;;;;;12.10;40.93;102031.63;4974018;28;45239;-58
2022/04/28 06:09:54;;;;;;;;;33.50;30.00;;;;;12.12;41.22;102031.59;4976698;28;45393;-58
2022/04/28 06:12:19;;;;;;;;;32.50;30.00;;;;;12.15;41.01;102031.59;4981233;28;45215;-58
2022/04/28 06:14:45;;;;;;;;;33.75;30.00;;;;;12.19;40.99;102022.81;4979928;28;47878;-58
2022/04/28 06:17:10;;;;;;;;;33.75;28.75;;;;;12.21;41.14;102033.38;4981713;28;45233;-58
2022/04/28 06:19:36;;;;;;;;;29.50;27.00;;;;;12.22;41.50;102025.44;4981490;28;45215;-58
2022/04/28 06:22:01;;;;;;;;;37.25;31.25;;;;;12.27;41.15;102030.72;4981494;28;45500;-58
2022/04/28 06:24:26;;;;;;;;;29.75;26.50;;;;;12.30;41.32;102033.34;4980867;28;46099;-58
2022/04/28 06:26:52;;;;;;;;;31.75;30.25;;;;;12.32;41.28;102036.88;4981304;28;45294;-58
2022/04/28 06:29:17;;;;;;;;;37.75;31.00;;;;;12.32;41.30;102029.81;4981029;28;45158;-58
2022/04/28 06:31:42;;;;;;;;;33.00;31.00;;;;;12.39;41.34;102037.72;4980970;28;45226;-58
2022/04/28 06:34:08;;;;;;;;;35.50;32.00;;;;;12.38;41.41;102028.94;4979545;28;46013;-58
2022/04/28 06:36:37;;;;;;;;;46.50;36.25;;;;;12.47;41.45;102049.16;4981024;28;45351;-58
2022/04/28 06:39:03;;;;;;;;;30.50;30.00;;;;;12.51;41.34;102043.88;4981136;28;45488;-58
2022/04/28 06:41:28;;;;;;;;;36.75;30.25;;;;;12.54;41.53;102050.91;4981173;28;45371;-58
2022/04/28 06:43:55;;;;;;;;;30.75;28.75;;;;;12.59;41.30;102051.78;4979183;28;48256;-58
2022/04/28 06:46:21;;;;;;;;;33.50;30.00;;;;;12.61;41.51;102047.38;4980912;28;45346;-58
2022/04/28 06:48:47;;;;;;;;;24.50;22.50;;;;;12.68;41.38;102054.38;4980828;28;45235;-58
2022/04/28 06:51:13;;;;;;;;;32.75;29.50;;;;;12.72;41.32;102051.75;4979519;28;45268;-59
2022/04/28 06:53:38;;;;;;;;;39.00;32.50;;;;;12.78;41.21;102054.34;4980575;28;46003;-58
2022/04/28 06:56:06;;;;;;;;;35.00;32.00;;;;;12.82;41.44;102062.25;4980626;28;45289;-58
2022/04/28 06:58:31;;;;;;;;;34.50;32.00;;;;;12.87;41.36;102064.91;4980544;28;45314;-58
2022/04/28 07:00:57;;;;;;;;;30.25;28.25;;;;;12.93;41.32;102066.63;4980712;28;45270;-58
2022/04/28 07:03:23;;;;;;;;;34.00;29.00;;;;;12.98;41.54;102063.13;4980312;28;45307;-58
2022/04/28 07:05:49;;;;;;;;;37.25;32.50;;;;;13.05;41.30;102065.72;4980668;28;45304;-59
2022/04/28 07:08:14;;;;;;;;;31.25;29.75;;;;;13.10;41.50;102061.31;4966728;28;45224;-59
2022/04/28 07:10:40;;;;;;;;;32.50;29.50;;;;;13.15;41.21;102063.03;4980626;28;45256;-60
2022/04/28 07:13:06;;;;;;;;;34.00;30.50;;;;;13.21;41.39;102064.78;4980170;28;46003;-59
2022/04/28 07:15:34;;;;;;;;;37.00;32.25;;;;;13.27;41.42;102063.88;4980661;28;45179;-59
2022/04/28 07:18:01;;;;;;;;;35.75;31.75;;;;;13.33;41.48;102075.31;4980500;28;45315;-58
2022/04/28 07:20:27;;;;;;;;;32.75;31.25;;;;;13.40;41.21;102077.94;4980610;28;45267;-59
2022/04/28 07:22:52;;;;;;;;;32.25;30.50;;;;;13.46;41.48;102075.28;4980146;28;45250;-59
2022/04/28 07:25:17;;;;;;;;;30.50;30.00;;;;;13.52;41.32;102072.63;4980306;28;45343;-59
2022/04/28 07:27:43;;;;;;;;;31.25;29.75;;;;;13.59;41.66;102076.09;4980206;28;45335;-59
2022/04/28 07:30:09;;;;;;;;;26.50;25.00;;;;;13.65;41.49;102076.06;4980301;28;45400;-59
2022/04/28 07:32:34;;;;;;;;;27.25;26.25;;;;;13.69;41.52;102072.50;4979867;28;46530;-59
2022/04/28 07:35:00;;;;;;;;;28.00;27.50;;;;;13.79;41.19;102083.88;4980236;28;45251;-59
2022/04/28 07:37:25;;;;;;;;;35.75;32.50;;;;;13.86;41.24;102077.69;4980330;28;45271;-59
2022/04/28 07:39:50;;;;;;;;;30.00;29.00;;;;;13.93;41.62;102073.22;4978902;28;45603;-59
2022/04/28 07:42:16;;;;;;;;;27.50;25.50;;;;;14.00;41.52;102079.34;4979878;28;45218;-59
2022/04/28 07:44:41;;;;;;;;;30.00;28.00;;;;;14.06;41.33;102066.97;4978824;28;45280;-59
2022/04/28 07:47:07;;;;;;;;;39.75;31.00;;;;;14.15;41.48;102079.25;4980201;28;45473;-59
2022/04/28 07:49:33;;;;;;;;;24.00;22.75;;;;;14.24;40.92;102083.59;4980182;28;45228;-59
2022/04/28 07:51:58;;;;;;;;;33.00;28.50;;;;;14.33;41.16;102085.28;4979969;28;47137;-59
2022/04/28 07:54:24;;;;;;;;;26.50;24.50;;;;;14.41;41.17;102089.56;4980285;28;45378;-59
2022/04/28 07:56:49;;;;;;;;;30.75;29.50;;;;;14.50;41.46;102091.25;4980048;28;45333;-59
2022/04/28 07:59:15;;;;;;;;;25.75;25.25;;;;;14.61;41.47;102091.19;4980086;28;45294;-59
2022/04/28 08:01:40;;;;;;;;;27.50;24.50;;;;;14.69;41.11;102085.84;4978509;28;46710;-59
2022/04/28 08:04:05;;;;;;;;;26.75;23.75;;;;;14.78;41.46;102081.34;4982363;28;45399;-59
2022/04/28 08:06:31;;;;;;;;;23.50;22.75;;;;;14.89;41.47;102083.88;4983487;28;45307;-59
2022/04/28 08:08:56;;;;;;;;;27.75;26.50;;;;;14.99;41.46;102086.41;4969535;28;45330;-59
2022/04/28 08:11:21;;;;;;;;;30.25;26.75;;;;;15.11;41.21;102086.28;4983068;28;46263;-60
2022/04/28 08:13:47;;;;;;;;;31.25;30.75;;;;;15.20;40.83;102082.63;4983267;28;45355;-63
2022/04/28 08:16:12;;;;;;;;;31.50;30.50;;;;;15.29;41.17;102087.81;4983332;28;45453;-59
2022/04/28 08:18:39;;;;;;;;;31.50;29.00;;;;;15.37;41.03;102085.06;4983480;28;45419;-59
2022/04/28 08:21:04;;;;;;;;;28.75;23.25;;;;;15.51;40.97;102095.47;4982854;28;46265;-59
2022/04/28 08:23:30;;;;;;;;;24.25;20.00;;;;;15.60;41.18;102090.94;4983116;28;46441;-59
2022/04/28 08:25:55;;;;;;;;;25.50;25.00;;;;;15.73;40.79;102098.72;4983040;28;45842;-60
2022/04/28 08:28:21;;;;;;;;;23.25;21.50;;;;;15.84;41.23;102083.56;4982878;28;45311;-60
2022/04/28 08:30:47;;;;;;;;;26.00;21.25;;;;;15.98;41.12;102087.78;4982820;28;45818;-59
2022/04/28 08:33:12;;;;;;;;;22.75;21.00;;;;;16.11;41.00;102094.63;4982763;28;45244;-59
2022/04/28 08:35:38;;;;;;;;;23.75;23.00;;;;;16.21;40.80;102095.38;4983141;28;45301;-59
2022/04/28 08:38:03;;;;;;;;;18.25;18.25;;;;;16.34;40.83;102086.31;4981562;28;45327;-59
2022/04/28 08:40:29;;;;;;;;;26.00;24.25;;;;;16.44;40.56;102087.03;4981367;28;47067;-59
2022/04/28 08:42:58;;;;;;;;;22.75;21.25;;;;;16.56;40.77;102092.13;4981329;28;45285;-59
2022/04/28 08:45:32;;;;;;;;;25.75;21.50;;;;;16.68;40.38;102090.16;4982870;28;45194;-59
2022/04/28 08:47:59;;;;;;;;;23.25;22.00;;;;;16.80;40.46;102092.56;4982628;28;45329;-59
2022/04/28 08:50:24;;;;;;;;;23.00;20.00;;;;;16.96;40.42;102098.50;4982526;28;45475;-59
2022/04/28 08:52:54;;;;;;;;;21.00;18.75;;;;;17.09;40.53;102093.81;4981398;28;45337;-59
2022/04/28 08:55:19;;;;;;;;;22.50;21.75;;;;;17.22;40.35;102086.50;4982519;28;45264;-59
2022/04/28 08:57:45;;;;;;;;;22.00;20.50;;;;;17.33;40.36;102080.94;4982234;28;45326;-59
2022/04/28 09:00:11;;;;;;;;;22.75;21.75;;;;;17.46;40.34;102085.09;4981373;28;47037;-59
2022/04/28 09:02:37;;;;;;;;;16.50;16.00;;;;;17.63;40.26;102092.66;4981292;28;45287;-59
2022/04/28 09:05:04;;;;;;;;;23.75;23.50;;;;;17.75;40.52;102086.22;4981170;28;45339;-59
2022/04/28 09:07:36;;;;;;;;;23.00;20.75;;;;;17.92;40.13;102092.94;4973396;28;45495;-59
2022/04/28 09:10:24;;;;;;;;;19.25;17.25;;;;;18.07;40.27;102089.91;4978507;28;46261;-58
2022/04/28 09:14:09;;;;;;;;;26.00;20.00;;;;;18.22;39.82;102079.84;4982005;28;45302;-59
2022/04/28 09:15:48;;;;;;;;;27.00;23.50;;;;;18.39;40.16;102079.38;4981082;28;45404;-59
2022/04/28 09:18:15;;;;;;;;;24.25;20.75;;;;;18.50;39.87;102064.00;4982189;28;45287;-59
2022/04/28 09:20:42;;;;;;;;;19.75;19.75;;;;;18.65;39.68;102062.72;4982103;28;46090;-59
2022/04/28 09:23:09;;;;;;;;;21.75;21.75;;;;;18.79;39.67;102073.00;4981915;28;45336;-59
2022/04/28 09:25:34;;;;;;;;;22.00;22.00;;;;;18.92;39.37;102073.59;4982224;28;45305;-59
2022/04/28 09:28:02;;;;;;;;;16.50;16.50;;;;;19.05;39.45;102063.44;4981658;28;45241;-59
2022/04/28 09:30:35;;;;;;;;;16.00;15.50;;;;;19.19;39.42;102063.03;4980908;28;46132;-59
2022/04/28 09:33:11;;;;;;;;;16.25;15.25;;;;;19.31;39.35;102063.53;4980489;28;45485;-59
2022/04/28 09:35:50;;;;;;;;;20.75;18.75;;;;;19.43;39.40;102058.75;4982064;28;45323;-59
2022/04/28 09:38:16;;;;;;;;;23.50;16.75;;;;;19.59;39.21;102062.69;4982148;28;45331;-59
2022/04/28 09:43:34;;;;;;;;;22.75;21.00;;;;;19.88;39.23;102060.94;4981472;28;45236;-59
2022/04/28 09:46:01;;;;;;;;;20.50;18.50;;;;;20.03;39.08;102066.69;4981718;28;45457;-62
2022/04/28 09:48:31;;;;;;;;;17.75;15.75;;;;;20.17;38.55;102052.91;4981671;28;45259;-59
2022/04/28 09:51:06;;;;;;;;;17.00;15.50;;;;;20.28;38.48;102053.41;4981388;28;46073;-59
2022/04/28 09:53:33;;;;;;;;;17.75;17.50;;;;;20.40;38.42;102052.97;4981594;28;45355;-60
2022/04/28 09:56:04;;;;;;;;;17.25;16.00;;;;;20.54;38.37;102054.28;4981833;28;45331;-59
2022/04/28 09:58:31;;;;;;;;;17.00;15.50;;;;;20.65;37.96;102046.75;4981313;28;45483;-59
2022/04/28 10:01:03;;;;;;;;;21.50;19.25;;;;;20.78;37.92;102040.09;4981521;28;45285;-59
2022/04/28 10:03:33;;;;;;;;;18.25;18.25;;;;;20.93;38.23;102052.00;4981304;28;45268;-59
2022/04/28 10:06:02;;;;;;;;;19.00;16.25;;;;;21.07;37.88;102043.47;4981594;28;45460;-59
2022/04/28 10:08:30;;;;;;;;;19.25;18.50;;;;;21.25;38.21;102044.56;4968785;28;45332;-59
2022/04/28 10:10:56;;;;;;;;;19.75;14.75;;;;;21.39;37.71;102036.00;4981045;28;45379;-59
2022/04/28 10:13:23;;;;;;;;;12.50;12.25;;;;;21.53;37.61;102035.44;4979808;28;45260;-58
2022/04/28 10:15:53;;;;;;;;;11.25;11.25;;;;;21.66;37.19;102043.91;4981532;28;45500;-59
2022/04/28 10:18:23;;;;;;;;;15.25;14.50;;;;;21.78;37.49;102041.66;4979957;28;45414;-57
2022/04/28 10:20:50;;;;;;;;;14.25;10.75;;;;;21.92;37.55;102036.59;4981199;28;45446;-60
2022/04/28 10:32:22;;;;;;;;;14.00;12.25;;;;;22.06;37.03;102031.56;4979731;28;45378;-60
2022/04/28 10:34:31;;;;;;;;;12.25;11.75;;;;;22.89;36.77;102043.13;4980994;28;45319;-59
2022/04/28 10:36:59;;;;;;;;;13.50;10.25;;;;;23.02;36.31;102034.53;4979918;28;45310;-58
2022/04/28 10:39:42;;;;;;;;;8.00;8.00;;;;;23.14;35.98;102028.56;4980993;28;45479;-59
2022/04/28 10:42:26;;;;;;;;;9.50;9.50;;;;;23.25;35.87;102024.56;4980506;28;46180;-58
2022/04/28 10:44:57;;;;;;;;;11.75;10.00;;;;;23.45;36.00;102024.47;4980980;28;45494;-58
2022/04/28 10:47:37;;;;;;;;;12.50;10.25;;;;;23.71;35.95;102016.97;4979621;28;45333;-58
2022/04/28 10:50:20;;;;;;;;;7.25;7.25;;;;;24.02;36.01;102008.28;4980938;28;45509;-58
2022/04/28 10:52:54;;;;;;;;;13.00;12.00;;;;;24.46;35.70;102019.44;4980732;28;45284;-58
2022/04/28 10:55:23;;;;;;;;;10.25;10.00;;;;;24.81;35.99;102011.34;4980541;28;45247;-58
2022/04/28 10:57:49;;;;;;;;;9.00;9.00;;;;;25.18;35.91;102013.81;4980647;28;45434;-58
2022/04/28 11:00:33;;;;;;;;;11.00;11.00;;;;;25.56;34.98;102006.28;4980605;28;45447;-58
2022/04/28 11:02:59;;;;;;;;;7.25;7.25;;;;;25.92;35.42;102014.97;4979433;28;47311;-58
2022/04/28 11:05:35;;;;;;;;;6.25;6.25;;;;;26.24;34.37;102012.25;4980461;28;45432;-58
2022/04/28 11:08:01;;;;;;;;;5.00;5.00;;;;;26.49;34.60;102011.59;4968975;28;45506;-58
2022/04/28 11:10:28;;;;;;;;;6.25;4.75;;;;;26.68;33.47;102013.13;4980256;28;45303;-58
2022/04/28 11:12:53;;;;;;;;;6.50;6.00;;;;;26.86;33.68;102006.59;4980383;28;45415;-58
2022/04/28 11:15:20;;;;;;;;;7.00;7.00;;;;;27.06;33.24;102012.56;4979174;28;45278;-58
2022/04/28 11:17:45;;;;;;;;;4.00;4.00;;;;;27.18;32.73;102011.78;4980674;28;45346;-58
2022/04/28 11:20:16;;;;;;;;;5.25;5.25;;;;;27.29;32.38;102016.47;4980498;28;45280;-58
2022/04/28 11:22:42;;;;;;;;;6.00;6.00;;;;;27.37;32.34;102021.34;4979003;28;46457;-58
2022/04/28 11:25:15;;;;;;;;;6.00;6.00;;;;;27.42;31.90;102005.75;4980197;28;45359;-58
2022/04/28 11:27:41;;;;;;;;;7.75;7.25;;;;;27.49;31.91;102009.78;4978800;28;45358;-58
2022/04/28 11:30:14;;;;;;;;;6.00;6.00;;;;;27.54;31.95;102007.63;4980373;28;45273;-58
2022/04/28 11:32:52;;;;;;;;;4.50;4.50;;;;;27.70;31.27;102022.84;4979751;28;45316;-58
2022/04/28 11:35:19;;;;;;;;;7.00;6.25;;;;;27.85;31.77;102023.63;4980222;28;45334;-59
2022/04/28 11:37:45;;;;;;;;;7.00;7.00;;;;;28.12;31.61;102020.91;4980903;28;45283;-59